Time;durP1;ratioP1;P1;durP2;ratioP2;P2;SDS_P1;SDS_P2;PMS_P1;PMS_P2;Temp;Humidity;BMP_temperature;BMP_pressure;BME280_temperature;BME280_humidity;BME280_pressure;Samples;Min_cycle;Max_cycle;Signal;HPM_P1;HPM_P2
2023/12/20 00:02:12;;;;;;;3.60;0.40;;;;;;;4.21;88.89;100547.84;5028550;28;20056;-83
2023/12/20 00:04:38;;;;;;;0.40;0.20;;;;;;;4.21;88.47;100540.06;5028579;28;20045;-82
2023/12/20 00:07:05;;;;;;;2.00;0.40;;;;;;;4.14;89.00;100541.69;5027343;28;20079;-85
2023/12/20 00:09:32;;;;;;;0.32;0.20;;;;;;;4.17;88.69;100545.22;5029905;28;20107;-84
2023/12/20 00:11:59;;;;;;;0.77;0.30;;;;;;;4.13;88.99;100548.63;5029771;28;20507;-83
2023/12/20 00:14:26;;;;;;;0.40;0.30;;;;;;;4.16;88.69;100546.06;5029250;28;20045;-84
2023/12/20 00:16:53;;;;;;;0.20;0.13;;;;;;;4.23;88.16;100551.31;5024397;28;20053;-83
2023/12/20 00:19:20;;;;;;;0.90;0.28;;;;;;;4.25;87.63;100552.22;5028388;28;20053;-85
2023/12/20 00:21:47;;;;;;;0.30;0.30;;;;;;;4.26;87.69;100559.16;5029289;28;20067;-83
2023/12/20 00:24:14;;;;;;;0.22;0.20;;;;;;;4.17;88.47;100553.00;5037267;28;20045;-83
2023/12/20 00:26:41;;;;;;;0.25;0.25;;;;;;;4.12;88.95;100557.25;5027895;28;20052;-88
2023/12/20 00:29:08;;;;;;;0.30;0.30;;;;;;;4.13;89.21;100558.16;5032863;28;20080;-85
2023/12/20 00:31:35;;;;;;;0.30;0.20;;;;;;;4.14;89.18;100563.34;5021494;28;20052;-83
2023/12/20 00:34:02;;;;;;;0.40;0.25;;;;;;;4.13;89.09;100556.41;5056915;28;20316;-82
2023/12/20 00:36:29;;;;;;;0.28;0.15;;;;;;;4.11;88.81;100558.13;5022374;28;20053;-83
2023/12/20 00:38:57;;;;;;;0.13;0.10;;;;;;;4.16;88.79;100556.44;5022698;28;20056;-84
2023/12/20 00:41:23;;;;;;;0.20;0.10;;;;;;;4.16;88.64;100560.78;5031786;28;20049;-83
2023/12/20 00:43:50;;;;;;;0.20;0.20;;;;;;;4.15;88.68;100557.28;5034292;28;20091;-85
2023/12/20 00:46:17;;;;;;;0.13;0.10;;;;;;;4.17;88.00;100560.78;5031293;28;20057;-84
2023/12/20 00:48:45;;;;;;;0.35;0.13;;;;;;;4.14;88.61;100560.75;5032918;28;20104;-83
2023/12/20 00:51:12;;;;;;;0.10;0.10;;;;;;;4.20;87.76;100556.47;5016180;28;20057;-83
2023/12/20 00:53:39;;;;;;;0.20;0.20;;;;;;;4.15;88.25;100541.69;5031836;28;20050;-83
2023/12/20 00:56:06;;;;;;;0.30;0.20;;;;;;;4.19;87.41;100553.03;5034503;28;20057;-88
2023/12/20 00:58:33;;;;;;;0.15;0.10;;;;;;;4.14;87.63;100546.88;5031059;28;20053;-84
2023/12/20 01:00:59;;;;;;;0.40;0.15;;;;;;;4.09;88.32;100545.97;5030433;28;20042;-84
2023/12/20 01:03:26;;;;;;;0.38;0.10;;;;;;;4.11;87.47;100532.16;5032397;28;20056;-83
2023/12/20 01:05:53;;;;;;;0.52;0.17;;;;;;;4.13;86.91;100537.38;5032811;28;20057;-84
2023/12/20 01:08:20;;;;;;;0.17;0.10;;;;;;;4.11;87.19;100536.47;5032827;28;20053;-83
2023/12/20 01:10:50;;;;;;;0.13;0.00;;;;;;;4.07;87.35;100529.47;5032501;28;20078;-87
2023/12/20 01:13:17;;;;;;;0.45;0.30;;;;;;;4.06;87.21;100518.22;5018468;28;20049;-85
2023/12/20 01:15:44;;;;;;;0.10;0.10;;;;;;;4.04;86.88;100511.25;5030506;28;20045;-83
2023/12/20 01:18:11;;;;;;;0.17;0.08;;;;;;;4.04;86.95;100504.34;5030694;28;20049;-84
2023/12/20 01:20:37;;;;;;;0.10;0.10;;;;;;;4.00;86.75;100490.44;5031543;28;20053;-83
2023/12/20 01:23:04;;;;;;;0.10;0.10;;;;;;;3.98;86.11;100489.56;5033135;28;20060;-82
2023/12/20 01:25:31;;;;;;;0.10;0.10;;;;;;;3.93;86.17;100492.97;5015061;28;20060;-85
2023/12/20 01:27:58;;;;;;;0.30;0.20;;;;;;;3.92;86.01;100484.28;5015292;28;20094;-82
2023/12/20 01:30:24;;;;;;;0.32;0.03;;;;;;;3.93;85.41;100487.75;5033587;28;20057;-83
2023/12/20 01:32:51;;;;;;;0.20;0.10;;;;;;;3.91;85.90;100486.84;5033014;28;20049;-84
2023/12/20 01:35:18;;;;;;;0.40;0.10;;;;;;;3.90;85.66;100485.13;5030971;28;20042;-86
2023/12/20 01:37:45;;;;;;;0.08;0.08;;;;;;;3.88;85.99;100489.41;5029377;28;20088;-87
2023/12/20 01:40:13;;;;;;;0.10;0.10;;;;;;;3.86;86.32;100496.31;5029904;28;20077;-83
2023/12/20 01:42:39;;;;;;;0.10;0.10;;;;;;;3.86;85.69;100491.13;5037060;28;20057;-87
2023/12/20 01:45:07;;;;;;;0.10;0.08;;;;;;;3.87;85.73;100487.66;5031289;28;20148;-85
2023/12/20 01:47:34;;;;;;;0.80;0.20;;;;;;;3.79;85.87;100488.44;5027815;28;20059;-83
2023/12/20 01:50:03;;;;;;;0.28;0.20;;;;;;;3.79;85.97;100484.97;5013207;28;20073;-83
2023/12/20 01:52:31;;;;;;;0.43;0.20;;;;;;;3.77;85.99;100482.34;5030376;28;20045;-82
2023/12/20 01:55:02;;;;;;;0.25;0.10;;;;;;;3.79;85.83;100484.97;5013873;28;20041;-85
2023/12/20 01:57:30;;;;;;;0.10;0.10;;;;;;;3.81;85.74;100486.75;5020076;28;20053;-82
2023/12/20 01:59:57;;;;;;;0.15;0.10;;;;;;;3.77;85.91;100492.75;5012646;28;20141;-82
2023/12/20 02:02:25;;;;;;;0.22;0.20;;;;;;;3.75;86.04;100485.78;5013979;28;20056;-84
2023/12/20 02:04:51;;;;;;;0.35;0.10;;;;;;;3.75;86.44;100498.75;5014455;28;20067;-84
2023/12/20 02:07:22;;;;;;;1.13;0.20;;;;;;;3.78;86.08;100504.88;5028043;28;20049;-83
2023/12/20 02:09:50;;;;;;;0.10;0.10;;;;;;;3.82;85.90;100505.78;5029476;28;20061;-83
2023/12/20 02:12:17;;;;;;;0.15;0.10;;;;;;;3.77;85.85;100494.47;5031321;28;20064;-83
2023/12/20 02:14:43;;;;;;;0.80;0.13;;;;;;;3.79;86.01;100505.75;5031102;28;20081;-83
2023/12/20 02:17:10;;;;;;;0.40;0.10;;;;;;;3.82;85.94;100503.19;5030756;28;20061;-84
2023/12/20 02:19:37;;;;;;;1.23;0.35;;;;;;;3.82;85.87;100500.59;5014391;28;20045;-82
2023/12/20 02:22:13;;;;;;;0.20;0.10;;;;;;;3.82;86.10;100498.00;5014160;28;20057;-86
2023/12/20 02:24:40;;;;;;;0.45;0.10;;;;;;;3.85;85.79;100500.63;5031337;28;20076;-83
2023/12/20 02:27:08;;;;;;;0.20;0.10;;;;;;;3.84;86.06;100504.09;5032496;28;20049;-84
2023/12/20 02:29:35;;;;;;;0.20;0.10;;;;;;;3.87;85.94;100508.44;5016472;28;20056;-85
2023/12/20 02:32:02;;;;;;;0.47;0.30;;;;;;;3.87;86.12;100508.44;5029576;28;20056;-84
2023/12/20 02:34:29;;;;;;;0.45;0.22;;;;;;;3.80;86.63;100503.16;5032415;28;20054;-83
2023/12/20 02:36:56;;;;;;;0.43;0.15;;;;;;;3.81;86.74;100504.91;5024995;28;20049;-83
2023/12/20 02:39:23;;;;;;;0.10;0.10;;;;;;;3.83;86.49;100486.75;5013386;28;20050;-85
2023/12/20 02:41:50;;;;;;;0.13;0.13;;;;;;;3.82;86.58;100474.63;5034472;28;20066;-84
2023/12/20 02:44:17;;;;;;;0.63;0.20;;;;;;;3.88;86.57;100481.63;5031272;28;20060;-85
2023/12/20 02:46:43;;;;;;;0.30;0.20;;;;;;;3.85;86.63;100489.38;5027206;28;20060;-82
2023/12/20 02:49:10;;;;;;;0.20;0.20;;;;;;;3.94;85.79;100484.28;5012211;28;20053;-83
2023/12/20 02:51:40;;;;;;;0.75;0.10;;;;;;;3.96;85.82;100482.59;5028905;28;20061;-86
2023/12/20 02:54:07;;;;;;;0.90;0.10;;;;;;;3.94;85.92;100481.69;5030566;28;20057;-83
2023/12/20 02:56:34;;;;;;;0.15;0.15;;;;;;;3.94;85.63;100476.50;5030199;28;20041;-83
2023/12/20 02:59:01;;;;;;;0.20;0.10;;;;;;;3.98;85.62;100483.47;5030018;28;20128;-85
2023/12/20 03:01:29;;;;;;;0.20;0.20;;;;;;;4.03;85.35;100479.22;5028530;28;20053;-83
2023/12/20 03:03:56;;;;;;;0.22;0.20;;;;;;;4.06;85.17;100483.59;5031298;28;20127;-83
2023/12/20 03:06:24;;;;;;;0.60;0.30;;;;;;;4.10;84.94;100485.34;5028764;28;20357;-83
2023/12/20 03:08:51;;;;;;;0.50;0.13;;;;;;;4.09;85.14;100473.25;5027983;28;20049;-86
2023/12/20 03:11:18;;;;;;;0.30;0.20;;;;;;;4.04;85.41;100470.59;5029462;28;20059;-84
2023/12/20 03:13:45;;;;;;;0.13;0.10;;;;;;;4.14;84.68;100467.25;5028679;28;20056;-83
2023/12/20 03:16:13;;;;;;;0.15;0.10;;;;;;;4.11;85.03;100493.19;5028423;28;20056;-89
2023/12/20 03:18:40;;;;;;;0.30;0.13;;;;;;;4.07;84.76;100491.41;5011740;28;20077;-83
2023/12/20 03:21:07;;;;;;;0.38;0.20;;;;;;;4.12;85.17;100507.91;5028399;28;20053;-84
2023/12/20 03:23:33;;;;;;;0.20;0.20;;;;;;;4.20;84.73;100517.50;5014850;28;20095;-85
2023/12/20 03:26:00;;;;;;;0.20;0.20;;;;;;;4.16;84.85;100514.88;5029251;28;20132;-83
2023/12/20 03:28:27;;;;;;;0.95;0.20;;;;;;;4.14;85.24;100511.41;5029990;28;20151;-83
2023/12/20 03:30:54;;;;;;;0.35;0.35;;;;;;;4.12;85.10;100510.50;5028385;28;20049;-84
2023/12/20 03:33:22;;;;;;;0.30;0.20;;;;;;;4.08;85.22;100502.66;5029254;28;20109;-86
2023/12/20 03:35:48;;;;;;;0.52;0.28;;;;;;;4.10;85.52;100508.72;5029895;28;20085;-84
2023/12/20 03:38:15;;;;;;;0.20;0.20;;;;;;;4.07;85.87;100509.59;5028172;28;20053;-83
2023/12/20 03:40:42;;;;;;;6.60;2.72;;;;;;;4.02;86.67;100513.84;5026773;28;20057;-85
2023/12/20 03:43:09;;;;;;;0.88;0.63;;;;;;;3.99;86.91;100509.47;5026008;28;20057;-84
2023/12/20 03:45:36;;;;;;;1.77;0.70;;;;;;;3.96;86.91;100493.84;5032920;28;20072;-84
2023/12/20 03:48:03;;;;;;;0.43;0.32;;;;;;;3.96;87.21;100501.63;5030381;28;20076;-87
2023/12/20 03:50:30;;;;;;;0.30;0.30;;;;;;;4.13;86.18;100501.88;5026104;28;20046;-86
2023/12/20 03:52:57;;;;;;;0.30;0.20;;;;;;;4.20;86.20;100509.72;5011846;28;20041;-85
2023/12/20 03:55:24;;;;;;;0.55;0.30;;;;;;;4.28;86.01;100505.50;5027936;28;20052;-85
2023/12/20 03:57:51;;;;;;;0.22;0.20;;;;;;;4.40;85.42;100509.97;5028285;28;20046;-85
2023/12/20 04:00:18;;;;;;;0.20;0.20;;;;;;;4.32;85.87;100512.47;5008473;28;20045;-84
2023/12/20 04:02:44;;;;;;;0.30;0.30;;;;;;;4.26;86.25;100518.47;5026433;28;20137;-85
2023/12/20 04:05:11;;;;;;;0.30;0.30;;;;;;;4.24;86.63;100519.31;5030161;28;20092;-85
2023/12/20 04:07:39;;;;;;;0.40;0.30;;;;;;;4.29;86.43;100528.03;5028038;28;20140;-87
2023/12/20 04:10:06;;;;;;;0.70;0.50;;;;;;;4.44;85.88;100525.59;5027857;28;20053;-86
2023/12/20 04:12:33;;;;;;;0.50;0.50;;;;;;;4.47;85.87;100523.03;5027123;28;20054;-85
2023/12/20 04:15:00;;;;;;;0.30;0.30;;;;;;;4.44;85.62;100522.13;5030738;28;20049;-87
2023/12/20 04:17:27;;;;;;;0.35;0.35;;;;;;;4.49;85.91;100529.13;5027980;28;20080;-84
2023/12/20 04:19:54;;;;;;;0.65;0.40;;;;;;;4.53;85.45;100528.31;5011048;28;20046;-88
2023/12/20 04:22:21;;;;;;;0.70;0.50;;;;;;;4.57;85.13;100536.16;5027834;28;20052;-85
2023/12/20 04:24:48;;;;;;;1.38;0.73;;;;;;;4.60;85.41;100544.84;5027256;28;20136;-84
2023/12/20 04:27:15;;;;;;;0.70;0.55;;;;;;;4.71;85.30;100537.16;5029652;28;20049;-84
2023/12/20 04:29:42;;;;;;;0.50;0.30;;;;;;;4.72;84.82;100541.50;5027737;28;20078;-85
2023/12/20 04:32:09;;;;;;;0.47;0.40;;;;;;;4.64;85.29;100541.41;5027783;28;20430;-84
2023/12/20 04:34:36;;;;;;;0.77;0.50;;;;;;;4.64;85.47;100556.16;5030648;28;20064;-84
2023/12/20 04:37:03;;;;;;;0.30;0.30;;;;;;;4.63;85.51;100557.00;5029984;28;20057;-85
2023/12/20 04:39:30;;;;;;;1.38;0.60;;;;;;;4.69;85.24;100570.94;5028493;28;20044;-88
2023/12/20 04:41:57;;;;;;;1.40;0.85;;;;;;;4.68;84.97;100564.00;5034770;28;20053;-85
2023/12/20 04:44:24;;;;;;;0.55;0.50;;;;;;;4.60;85.45;100573.44;5030237;28;20049;-84
2023/12/20 04:46:51;;;;;;;1.88;0.68;;;;;;;4.62;85.46;100570.84;5008559;28;20049;-85
2023/12/20 04:49:17;;;;;;;1.23;0.60;;;;;;;4.60;85.39;100569.97;5012795;28;20049;-85
2023/12/20 04:51:44;;;;;;;0.50;0.40;;;;;;;4.56;85.87;100570.78;5028328;28;20164;-85
2023/12/20 04:54:11;;;;;;;1.33;0.77;;;;;;;4.51;85.76;100571.59;5029270;28;20049;-86
2023/12/20 04:56:38;;;;;;;0.95;0.65;;;;;;;4.59;85.18;100574.31;5028014;28;20061;-84
2023/12/20 04:59:05;;;;;;;1.05;0.63;;;;;;;4.58;85.22;100576.88;5026747;28;20054;-87
2023/12/20 05:01:32;;;;;;;2.22;1.00;;;;;;;4.49;85.38;100573.31;5028222;28;20053;-86
2023/12/20 05:03:59;;;;;;;1.75;1.08;;;;;;;4.51;85.78;100582.00;5027484;28;20051;-85
2023/12/20 05:06:26;;;;;;;1.30;1.00;;;;;;;4.47;85.86;100579.34;5030043;28;20049;-85
2023/12/20 05:08:53;;;;;;;2.92;0.90;;;;;;;4.49;85.69;100594.09;5029426;28;20052;-84
2023/12/20 05:11:20;;;;;;;0.90;0.82;;;;;;;4.60;85.39;100586.41;5029249;28;20079;-85
2023/12/20 05:13:47;;;;;;;2.45;1.02;;;;;;;4.66;85.24;100585.63;5026770;28;20045;-85
2023/12/20 05:16:17;;;;;;;0.90;0.80;;;;;;;4.77;85.20;100593.56;5032854;28;20057;-85
2023/12/20 05:18:46;;;;;;;1.30;0.93;;;;;;;4.63;85.19;100594.25;5031740;28;20054;-85
2023/12/20 05:21:13;;;;;;;2.53;0.90;;;;;;;4.65;85.43;100599.47;5031504;28;20051;-83
2023/12/20 05:23:40;;;;;;;1.73;0.80;;;;;;;4.65;85.36;100591.66;5031024;28;20059;-88
2023/12/20 05:26:07;;;;;;;1.95;1.20;;;;;;;4.64;85.24;100592.53;5033054;28;20073;-83
2023/12/20 05:28:33;;;;;;;1.25;0.90;;;;;;;4.67;85.31;100593.44;5029667;28;20050;-85
2023/12/20 05:31:00;;;;;;;0.88;0.60;;;;;;;4.71;84.88;100591.75;5027482;28;20057;-85
2023/12/20 05:33:27;;;;;;;0.88;0.63;;;;;;;4.63;84.89;100594.25;5026385;28;20168;-84
2023/12/20 05:35:55;;;;;;;0.90;0.60;;;;;;;4.57;85.16;100606.31;5034111;28;20145;-84
2023/12/20 05:38:22;;;;;;;1.17;0.63;;;;;;;4.65;84.66;100604.66;5014754;28;20053;-84
2023/12/20 05:40:48;;;;;;;1.33;0.70;;;;;;;4.69;84.26;100616.84;5034196;28;20068;-85
2023/12/20 05:43:15;;;;;;;0.85;0.68;;;;;;;4.63;84.78;100630.66;5033398;28;20055;-83
2023/12/20 05:45:42;;;;;;;0.57;0.50;;;;;;;4.55;84.52;100631.41;5037682;28;20068;-85
2023/12/20 05:48:09;;;;;;;0.65;0.50;;;;;;;4.48;85.02;100644.34;5041947;28;20053;-84
2023/12/20 05:50:36;;;;;;;1.17;0.57;;;;;;;4.55;84.91;100642.69;5034126;28;20046;-88
2023/12/20 05:53:03;;;;;;;0.80;0.65;;;;;;;4.58;84.77;100649.66;5031268;28;20050;-86
2023/12/20 05:55:30;;;;;;;1.05;0.88;;;;;;;4.61;84.66;100655.75;5030664;28;20050;-87
2023/12/20 05:57:57;;;;;;;1.10;0.90;;;;;;;4.59;84.50;100654.00;5032692;28;20052;-85
2023/12/20 06:00:25;;;;;;;1.58;0.90;;;;;;;4.53;84.84;100663.47;5043170;28;20069;-86
2023/12/20 06:02:51;;;;;;;0.80;0.68;;;;;;;4.48;85.12;100672.91;5037718;28;20076;-86
2023/12/20 06:05:18;;;;;;;0.45;0.43;;;;;;;4.44;85.14;100678.91;5038212;28;20053;-86
2023/12/20 06:07:48;;;;;;;2.05;0.80;;;;;;;4.49;84.82;100687.66;5035202;28;20564;-86
2023/12/20 06:10:16;;;;;;;2.92;0.80;;;;;;;4.66;83.34;100689.59;5036029;28;20050;-86
2023/12/20 06:12:43;;;;;;;1.58;0.90;;;;;;;4.74;82.88;100682.78;5035772;28;20049;-88
2023/12/20 06:15:12;;;;;;;1.75;1.00;;;;;;;4.68;83.24;100672.31;5032469;28;20562;-85
2023/12/20 06:17:38;;;;;;;2.15;0.80;;;;;;;4.70;83.19;100686.19;5035068;28;20412;-87
2023/12/20 06:20:07;;;;;;;1.23;0.80;;;;;;;4.65;83.35;100685.25;5034739;28;20145;-86
2023/12/20 06:22:35;;;;;;;0.60;0.60;;;;;;;4.60;83.98;100686.94;5043915;28;20053;-89
2023/12/20 06:25:03;;;;;;;1.83;1.00;;;;;;;4.58;84.29;100692.13;5034975;28;20052;-86
2023/12/20 06:27:30;;;;;;;3.35;0.80;;;;;;;4.59;83.76;100698.19;5035912;28;20080;-86
2023/12/20 06:29:57;;;;;;;2.03;1.13;;;;;;;4.55;83.36;100696.38;5041280;28;20140;-87
2023/12/20 06:32:24;;;;;;;3.03;1.02;;;;;;;4.55;83.36;100706.78;5036747;28;20065;-85
2023/12/20 06:34:51;;;;;;;2.17;1.13;;;;;;;4.50;83.67;100710.22;5034474;28;20049;-89
2023/12/20 06:37:18;;;;;;;1.70;0.60;;;;;;;4.56;82.93;100713.75;5038144;28;20056;-86
2023/12/20 06:39:46;;;;;;;1.92;1.00;;;;;;;4.47;83.32;100712.75;5032151;28;20140;-86
2023/12/20 06:42:13;;;;;;;1.20;0.85;;;;;;;4.48;82.48;100711.91;5016592;28;20113;-89
2023/12/20 06:44:40;;;;;;;1.23;0.82;;;;;;;4.46;81.29;100713.63;5040882;28;20419;-85
2023/12/20 06:47:07;;;;;;;1.88;1.00;;;;;;;4.43;81.03;100708.38;5017321;28;20056;-86
2023/12/20 06:49:34;;;;;;;3.90;1.02;;;;;;;4.33;81.47;100709.06;5023715;28;20075;-91
2023/12/20 06:52:02;;;;;;;0.70;0.65;;;;;;;4.32;80.53;100712.53;5023813;28;20103;-89
2023/12/20 06:54:28;;;;;;;1.60;0.65;;;;;;;4.17;80.72;100719.25;5041882;28;20493;-86
2023/12/20 06:56:55;;;;;;;1.35;0.77;;;;;;;4.20;80.08;100725.34;5035107;28;20041;-87
2023/12/20 06:59:22;;;;;;;1.15;0.75;;;;;;;4.07;80.32;100709.56;5036493;28;20045;-88
2023/12/20 07:01:49;;;;;;;2.55;0.93;;;;;;;4.13;79.68;100703.59;5035514;28;20053;-85
2023/12/20 07:04:20;;;;;;;1.88;0.70;;;;;;;4.07;78.70;100699.19;5049033;28;20049;-86
2023/12/20 07:06:50;;;;;;;0.57;0.50;;;;;;;3.95;79.26;100705.06;5028337;28;20049;-85
2023/12/20 07:09:17;;;;;;;1.33;0.63;;;;;;;4.01;78.25;100714.66;5034764;28;20112;-87
2023/12/20 07:11:44;;;;;;;0.45;0.40;;;;;;;3.99;78.39;100711.16;5026809;28;20053;-85
2023/12/20 07:14:11;;;;;;;1.27;0.40;;;;;;;3.89;78.58;100704.06;5032811;28;20045;-86
2023/12/20 07:16:38;;;;;;;0.93;0.40;;;;;;;3.93;78.24;100695.50;5032090;28;20103;-85
2023/12/20 07:19:05;;;;;;;1.00;0.40;;;;;;;3.94;78.18;100697.22;5032301;28;20045;-85
2023/12/20 07:21:32;;;;;;;1.13;0.60;;;;;;;3.87;78.56;100695.38;5032239;28;20049;-85
2023/12/20 07:23:59;;;;;;;0.80;0.40;;;;;;;3.79;78.59;100703.91;5032488;28;20045;-85
2023/12/20 07:26:25;;;;;;;2.97;0.40;;;;;;;3.85;78.23;100715.25;5040629;28;20072;-85
2023/12/20 07:28:52;;;;;;;1.30;0.50;;;;;;;3.83;78.30;100715.22;5031104;28;20053;-88
2023/12/20 07:31:19;;;;;;;1.45;0.40;;;;;;;3.88;78.00;100707.50;5033258;28;20052;-85
2023/12/20 07:33:46;;;;;;;3.03;0.50;;;;;;;3.76;78.37;100716.84;5040149;28;20046;-85
2023/12/20 07:36:13;;;;;;;1.83;0.60;;;;;;;3.73;78.12;100718.53;5036705;28;20073;-83
2023/12/20 07:38:41;;;;;;;4.07;0.98;;;;;;;3.61;78.68;100721.78;5045061;28;20118;-83
2023/12/20 07:41:10;;;;;;;0.57;0.30;;;;;;;3.62;78.27;100727.00;5033470;28;20045;-83
2023/12/20 07:43:37;;;;;;;0.93;0.40;;;;;;;3.63;78.02;100730.47;5032531;28;20088;-84
2023/12/20 07:46:08;;;;;;;2.08;0.55;;;;;;;3.61;78.25;100730.44;5014874;28;20065;-83
2023/12/20 07:48:35;;;;;;;2.13;0.80;;;;;;;3.48;78.91;100738.84;5035765;28;20049;-83
2023/12/20 07:51:03;;;;;;;2.80;0.52;;;;;;;3.56;78.55;100751.94;5028222;28;20069;-84
2023/12/20 07:53:30;;;;;;;1.48;0.47;;;;;;;3.65;77.90;100746.94;5015021;28;20171;-83
2023/12/20 07:55:57;;;;;;;1.00;0.65;;;;;;;3.58;78.29;100755.47;5030956;28;20049;-84
2023/12/20 07:58:25;;;;;;;1.92;0.38;;;;;;;3.51;78.87;100754.47;5011859;28;20117;-83
2023/12/20 08:01:11;;;;;;;1.60;0.60;;;;;;;3.55;78.93;100769.25;5024430;28;20140;-84
2023/12/20 08:03:38;;;;;;;0.50;0.43;;;;;;;3.59;78.83;100762.38;5026226;28;20060;-82
2023/12/20 08:06:05;;;;;;;4.57;0.98;;;;;;;3.61;78.98;100763.31;5029441;28;20457;-83
2023/12/20 08:08:32;;;;;;;1.30;0.60;;;;;;;3.66;79.37;100766.84;5029192;28;20045;-82
2023/12/20 08:11:00;;;;;;;0.80;0.60;;;;;;;3.77;79.22;100754.06;5029040;28;20064;-83
2023/12/20 08:13:27;;;;;;;1.65;0.75;;;;;;;3.76;78.85;100760.97;5030334;28;20054;-82
2023/12/20 08:15:54;;;;;;;0.70;0.50;;;;;;;3.76;79.15;100760.09;5031671;28;20049;-84
2023/12/20 08:18:20;;;;;;;2.47;0.80;;;;;;;3.76;79.10;100760.97;5025586;28;20053;-83
2023/12/20 08:20:48;;;;;;;0.95;0.80;;;;;;;3.65;79.37;100767.72;5027365;28;20111;-83
2023/12/20 08:23:15;;;;;;;2.72;0.80;;;;;;;3.82;78.53;100776.69;5025910;28;20053;-82
2023/12/20 08:25:42;;;;;;;2.90;1.13;;;;;;;3.90;78.25;100792.38;5031814;28;20053;-83
2023/12/20 08:28:09;;;;;;;2.83;0.65;;;;;;;3.81;78.69;100794.81;5033238;28;20055;-82
2023/12/20 08:30:36;;;;;;;0.85;0.47;;;;;;;3.80;78.85;100788.75;5032242;28;20049;-83
2023/12/20 08:33:03;;;;;;;2.67;0.60;;;;;;;3.90;78.51;100786.34;5031019;28;20440;-84
2023/12/20 08:35:30;;;;;;;1.63;0.90;;;;;;;3.85;78.79;100785.34;5026944;28;20053;-82
2023/12/20 08:37:56;;;;;;;3.03;0.70;;;;;;;3.79;78.89;100791.31;5009616;28;20046;-83
2023/12/20 08:40:23;;;;;;;1.65;0.75;;;;;;;3.71;79.21;100795.47;5025829;28;20141;-82
2023/12/20 08:42:50;;;;;;;3.38;1.10;;;;;;;3.70;79.51;100792.03;5030261;28;20053;-86
2023/12/20 08:45:17;;;;;;;1.80;0.63;;;;;;;3.71;79.26;100793.78;5036530;28;20420;-82
2023/12/20 08:47:44;;;;;;;2.63;0.60;;;;;;;3.72;79.27;100792.94;5029550;28;20054;-86
2023/12/20 08:50:12;;;;;;;2.78;0.60;;;;;;;3.72;79.45;100789.44;5026527;28;20049;-87
2023/12/20 08:52:39;;;;;;;0.47;0.40;;;;;;;3.72;79.44;100790.34;5033990;28;20136;-82
2023/12/20 08:55:06;;;;;;;2.65;0.80;;;;;;;3.74;79.43;100793.81;5028621;28;20042;-84
2023/12/20 08:57:33;;;;;;;6.68;0.85;;;;;;;3.70;79.50;100794.63;5029975;28;20128;-84
2023/12/20 09:00:00;;;;;;;2.35;0.90;;;;;;;3.74;79.70;100788.63;5018203;28;20052;-84
2023/12/20 09:02:27;;;;;;;2.15;0.80;;;;;;;3.79;79.79;100783.53;5027480;28;20049;-83
2023/12/20 09:04:55;;;;;;;2.95;0.70;;;;;;;3.88;79.58;100788.00;5031107;28;20041;-84
2023/12/20 09:07:26;;;;;;;1.13;0.80;;;;;;;3.98;79.16;100792.50;5030980;28;20061;-85
2023/12/20 09:09:53;;;;;;;2.65;0.95;;;;;;;3.97;79.46;100806.38;5031235;28;20403;-86
2023/12/20 09:12:20;;;;;;;2.38;0.80;;;;;;;4.03;79.37;100798.69;5028766;28;20069;-84
2023/12/20 09:14:48;;;;;;;8.80;1.02;;;;;;;4.18;78.99;100801.50;5033200;28;20057;-84
2023/12/20 09:17:16;;;;;;;3.75;1.02;;;;;;;4.26;78.80;100799.06;5033530;28;20042;-83
2023/12/20 09:19:46;;;;;;;5.10;1.00;;;;;;;4.31;77.57;100797.41;5032886;28;20084;-84
2023/12/20 09:22:13;;;;;;;3.47;0.82;;;;;;;4.31;77.63;100786.13;5027698;28;20049;-83
2023/12/20 09:24:40;;;;;;;3.10;1.10;;;;;;;4.32;77.65;100793.09;5034700;28;20049;-82
2023/12/20 09:27:07;;;;;;;2.20;0.93;;;;;;;4.33;77.27;100805.22;5030600;28;20059;-83
2023/12/20 09:29:33;;;;;;;3.13;1.00;;;;;;;4.23;78.30;100812.00;5030611;28;20053;-84
2023/12/20 09:32:00;;;;;;;3.20;0.80;;;;;;;4.20;78.57;100811.06;5036448;28;20053;-83
2023/12/20 09:34:27;;;;;;;4.60;0.80;;;;;;;4.22;77.95;100817.19;5030593;28;20087;-83
2023/12/20 09:36:55;;;;;;;3.40;1.13;;;;;;;4.22;77.97;100817.19;5033579;28;20057;-86
2023/12/20 09:39:23;;;;;;;4.93;1.00;;;;;;;4.26;77.74;100812.06;5016867;28;20507;-83
2023/12/20 09:42:05;;;;;;;4.05;0.90;;;;;;;4.27;77.28;100820.72;5035096;28;20084;-83
2023/12/20 09:44:34;;;;;;;2.85;1.00;;;;;;;4.22;78.01;100814.59;5028569;28;20041;-83
2023/12/20 09:47:02;;;;;;;4.55;0.90;;;;;;;4.14;78.25;100819.63;5031927;28;20045;-85
2023/12/20 09:49:30;;;;;;;6.20;0.80;;;;;;;4.17;77.87;100814.47;5030390;28;20530;-84
2023/12/20 09:51:57;;;;;;;4.47;1.02;;;;;;;4.21;77.61;100805.03;5028193;28;20050;-85
2023/12/20 09:54:26;;;;;;;2.80;1.08;;;;;;;4.34;77.54;100817.38;5045343;28;20049;-85
2023/12/20 09:56:52;;;;;;;3.30;0.80;;;;;;;4.56;76.54;100822.91;5030927;28;20059;-84
2023/12/20 09:59:19;;;;;;;2.85;1.65;;;;;;;4.67;76.41;100805.75;5047498;28;20077;-84
2023/12/20 10:01:47;;;;;;;2.63;0.73;;;;;;;4.77;77.01;100797.25;5029566;28;20528;-83
2023/12/20 10:04:15;;;;;;;2.53;0.68;;;;;;;4.71;76.35;100794.56;5010639;28;20117;-87
2023/12/20 10:06:56;;;;;;;3.17;1.10;;;;;;;4.83;74.91;100775.66;5041448;28;20050;-85
2023/12/20 10:09:24;;;;;;;3.85;1.00;;;;;;;4.84;76.00;100790.41;5008558;28;20045;-83
2023/12/20 10:11:56;;;;;;;1.30;0.60;;;;;;;4.82;76.35;100779.09;5027887;28;20065;-84
2023/12/20 10:14:27;;;;;;;7.15;1.10;;;;;;;4.86;75.97;100780.88;5012908;28;20080;-86
2023/12/20 10:17:05;;;;;;;4.05;0.93;;;;;;;4.91;74.28;100788.75;5018131;28;20497;-83
2023/12/20 10:19:37;;;;;;;4.90;0.90;;;;;;;4.84;75.47;100775.66;5013344;28;20049;-89
2023/12/20 10:22:08;;;;;;;3.47;0.88;;;;;;;4.87;74.65;100783.50;5015856;28;20052;-84
2023/12/20 10:24:36;;;;;;;3.90;0.90;;;;;;;4.87;74.63;100785.25;5031026;28;20079;-87
2023/12/20 10:27:08;;;;;;;1.45;0.70;;;;;;;4.96;74.45;100787.09;5007410;28;20046;-84
2023/12/20 10:29:38;;;;;;;1.30;0.60;;;;;;;4.95;74.15;100796.59;5028615;28;20418;-85
2023/12/20 10:32:21;;;;;;;4.03;0.90;;;;;;;4.99;74.32;100800.13;5029893;28;20049;-85
2023/12/20 10:34:48;;;;;;;7.72;0.85;;;;;;;5.02;74.27;100782.84;5029089;28;20472;-85
2023/12/20 10:37:15;;;;;;;3.38;1.10;;;;;;;5.04;74.51;100781.16;5028949;28;20041;-84
2023/12/20 10:39:42;;;;;;;4.35;0.90;;;;;;;5.11;73.68;100781.22;5030399;28;20079;-86
2023/12/20 10:42:13;;;;;;;2.40;1.00;;;;;;;5.10;73.90;100771.66;5030002;28;20049;-83
2023/12/20 10:44:40;;;;;;;4.57;0.88;;;;;;;5.14;73.96;100779.53;5001128;28;20123;-85
2023/12/20 10:47:07;;;;;;;3.42;0.90;;;;;;;5.19;74.88;100777.84;5044389;28;20041;-85
2023/12/20 10:49:36;;;;;;;2.65;0.88;;;;;;;5.18;74.09;100778.69;5042711;28;20045;-86
2023/12/20 10:52:04;;;;;;;0.95;0.70;;;;;;;5.30;74.95;100772.78;5028812;28;20055;-83
2023/12/20 10:54:31;;;;;;;1.50;0.90;;;;;;;5.23;73.50;100779.66;5009454;28;20137;-82
2023/12/20 10:56:58;;;;;;;4.18;1.45;;;;;;;5.19;74.19;100777.00;5012182;28;20056;-85
2023/12/20 10:59:27;;;;;;;2.25;0.85;;;;;;;5.17;74.38;100774.38;5029778;28;20056;-82
2023/12/20 11:01:56;;;;;;;1.48;0.88;;;;;;;5.17;73.81;100761.38;5031553;28;20041;-83
2023/12/20 11:04:27;;;;;;;3.22;0.73;;;;;;;5.13;73.69;100754.38;5016351;28;20046;-82
2023/12/20 11:06:59;;;;;;;2.55;0.90;;;;;;;5.12;75.02;100755.22;5023983;28;20065;-83
2023/12/20 11:09:31;;;;;;;4.40;0.70;;;;;;;5.10;74.84;100743.94;5043986;28;20060;-82
2023/12/20 11:12:17;;;;;;;2.78;0.93;;;;;;;5.11;74.77;100753.47;5030500;28;20061;-83
2023/12/20 11:14:47;;;;;;;2.63;1.00;;;;;;;5.10;74.81;100751.72;5012419;28;20055;-82
2023/12/20 11:17:16;;;;;;;5.13;1.40;;;;;;;5.08;74.73;100743.00;5035088;28;20145;-83
2023/12/20 11:19:52;;;;;;;2.28;0.80;;;;;;;5.08;74.28;100740.41;5024589;28;272064;-82
2023/12/20 11:22:24;;;;;;;3.45;0.93;;;;;;;5.10;74.47;100741.31;5017670;28;20060;-81
2023/12/20 11:24:52;;;;;;;5.37;1.10;;;;;;;5.08;74.86;100743.00;5028250;28;20045;-81
2023/12/20 11:27:20;;;;;;;3.13;0.80;;;;;;;5.05;74.54;100732.56;5024016;28;20047;-82
2023/12/20 11:29:55;;;;;;;1.63;0.88;;;;;;;5.03;74.18;100732.56;5028145;28;20049;-81
2023/12/20 11:32:28;;;;;;;2.17;0.90;;;;;;;5.00;74.57;100734.28;5014341;28;20140;-82
2023/12/20 11:35:00;;;;;;;2.50;1.05;;;;;;;5.03;74.75;100731.69;5039608;28;20040;-83
2023/12/20 11:37:37;;;;;;;5.72;1.13;;;;;;;5.04;74.07;100733.47;5042651;28;20041;-83